Time;durP1;ratioP1;P1;durP2;ratioP2;P2;SDS_P1;SDS_P2;PMS_P1;PMS_P2;Temp;Humidity;BMP_temperature;BMP_pressure;BME280_temperature;BME280_humidity;BME280_pressure;Samples;Min_cycle;Max_cycle;Signal;HPM_P1;HPM_P2
2022/01/15 00:00:35;;;;;;;20.90;12.80;;;5.80;99.90;;;;;;5101638;28;20643;-79
2022/01/15 00:03:04;;;;;;;24.63;12.40;;;5.90;99.90;;;;;;5103394;28;20592;-80
2022/01/15 00:05:34;;;;;;;17.20;11.47;;;5.90;99.90;;;;;;5105714;28;20472;-80
2022/01/15 00:08:06;;;;;;;18.10;11.90;;;6.00;99.90;;;;;;5101225;28;20459;-79
2022/01/15 00:10:35;;;;;;;22.38;11.65;;;6.00;99.90;;;;;;5106187;27;20206;-84
2022/01/15 00:13:07;;;;;;;18.23;11.43;;;5.90;99.50;;;;;;5105975;28;20206;-80
2022/01/15 00:15:40;;;;;;;17.00;9.52;;;5.80;99.20;;;;;;5103156;28;20241;-80
2022/01/15 00:18:12;;;;;;;19.20;10.20;;;5.80;97.20;;;;;;5097695;28;20211;-80
2022/01/15 00:20:41;;;;;;;15.80;9.87;;;5.80;96.10;;;;;;5103409;28;20538;-79
2022/01/15 00:23:10;;;;;;;14.35;9.60;;;5.90;96.00;;;;;;5107003;28;21005;-80
2022/01/15 00:25:39;;;;;;;15.13;9.82;;;5.70;96.00;;;;;;5106613;28;20218;-80
2022/01/15 00:28:07;;;;;;;15.27;9.17;;;5.70;95.80;;;;;;5103008;28;20209;-80
2022/01/15 00:30:35;;;;;;;14.17;8.63;;;5.60;96.40;;;;;;5099119;28;21290;-81
2022/01/15 00:33:04;;;;;;;13.00;7.50;;;5.60;96.90;;;;;;5102276;28;20444;-81
2022/01/15 00:35:33;;;;;;;14.83;8.87;;;5.60;97.90;;;;;;5099218;28;20230;-79
2022/01/15 00:38:02;;;;;;;16.50;9.50;;;5.50;96.80;;;;;;5102188;28;20449;-80
2022/01/15 00:40:31;;;;;;;14.23;8.30;;;5.60;96.70;;;;;;5109710;28;20881;-79
2022/01/15 00:43:00;;;;;;;12.90;7.77;;;5.50;96.90;;;;;;5101690;27;20465;-78
2022/01/15 00:45:32;;;;;;;13.20;7.60;;;5.50;97.60;;;;;;5105374;28;20566;-79
2022/01/15 00:48:02;;;;;;;10.97;7.37;;;5.50;97.00;;;;;;5104460;27;20280;-79
2022/01/15 00:50:30;;;;;;;10.50;7.43;;;5.50;99.90;;;;;;5106739;28;20476;-79
2022/01/15 00:52:58;;;;;;;9.27;7.22;;;5.50;95.30;;;;;;5105176;28;20194;-79
2022/01/15 00:55:27;;;;;;;12.13;8.00;;;5.50;96.80;;;;;;5112460;28;20226;-79
2022/01/15 00:57:57;;;;;;;10.57;7.88;;;5.50;98.10;;;;;;5111164;28;20215;-80
2022/01/15 01:00:27;;;;;;;8.75;7.70;;;5.40;96.70;;;;;;5108677;28;20198;-77
2022/01/15 01:02:56;;;;;;;10.68;7.60;;;5.40;99.90;;;;;;5110075;28;20226;-79
2022/01/15 01:05:24;;;;;;;11.27;7.10;;;5.40;95.10;;;;;;5107151;28;20226;-80
2022/01/15 01:07:53;;;;;;;8.98;7.70;;;5.40;94.90;;;;;;5106535;28;20205;-79
2022/01/15 01:10:49;;;;;;;12.73;8.77;;;5.40;94.70;;;;;;5098194;27;20198;-79
2022/01/15 01:24:30;;;;;;;14.10;8.13;;;5.30;94.80;;;;;;5099566;28;20234;-78
2022/01/15 01:27:02;;;;;;;11.10;7.65;;;5.20;95.20;;;;;;5106240;28;20679;-78
2022/01/15 01:29:46;;;;;;;14.80;9.20;;;5.20;95.30;;;;;;5104376;28;20295;-79
2022/01/15 01:32:31;;;;;;;9.32;7.38;;;5.20;94.80;;;;;;5110977;28;20209;-79
2022/01/15 01:35:06;;;;;;;9.10;7.40;;;5.30;95.00;;;;;;5111387;28;20207;-78
2022/01/15 01:37:38;;;;;;;10.50;7.88;;;5.30;95.00;;;;;;5099693;28;20201;-80
2022/01/15 01:40:18;;;;;;;15.43;9.88;;;5.30;95.10;;;;;;5104861;28;20210;-79
2022/01/15 01:42:57;;;;;;;10.97;8.80;;;5.20;94.50;;;;;;5112196;28;20297;-79
2022/01/15 01:45:27;;;;;;;10.32;8.32;;;5.30;94.50;;;;;;5112538;28;20918;-79
2022/01/15 01:47:56;;;;;;;13.43;8.52;;;5.20;95.10;;;;;;5098446;28;20259;-80
2022/01/15 01:50:25;;;;;;;16.05;9.77;;;5.20;95.00;;;;;;5106261;28;20244;-80
2022/01/15 01:52:55;;;;;;;14.13;8.23;;;5.10;94.80;;;;;;5103018;28;20206;-79
2022/01/15 01:55:25;;;;;;;12.73;9.05;;;5.20;94.90;;;;;;5101574;28;20224;-79
2022/01/15 01:57:56;;;;;;;12.00;8.93;;;5.20;94.90;;;;;;5100498;28;20213;-80
2022/01/15 02:00:26;;;;;;;14.13;9.68;;;5.20;94.80;;;;;;5098911;28;20671;-79
2022/01/15 02:02:56;;;;;;;14.50;9.70;;;5.10;94.40;;;;;;5101604;27;20218;-81
2022/01/15 02:05:25;;;;;;;17.40;9.45;;;5.10;95.10;;;;;;5108567;28;20215;-80
2022/01/15 02:07:53;;;;;;;11.60;8.50;;;5.10;98.80;;;;;;5102125;28;20208;-79
2022/01/15 02:10:22;;;;;;;13.68;9.38;;;5.10;95.30;;;;;;5101699;28;20206;-80
2022/01/15 02:12:51;;;;;;;17.10;10.45;;;5.10;94.40;;;;;;5103926;28;20207;-80
2022/01/15 02:15:22;;;;;;;17.08;9.30;;;5.10;94.70;;;;;;5110624;28;20214;-80
2022/01/15 02:17:51;;;;;;;18.80;10.18;;;5.20;94.60;;;;;;5111535;28;20213;-80
2022/01/15 02:20:35;;;;;;;16.42;9.30;;;5.20;94.40;;;;;;5111431;28;20203;-80
2022/01/15 02:25:54;;;;;;;15.75;8.13;;;5.10;94.50;;;;;;5108568;28;20728;-79
2022/01/15 02:28:24;;;;;;;12.13;7.95;;;5.10;94.20;;;;;;5109839;28;20210;-79
2022/01/15 02:30:54;;;;;;;9.38;8.38;;;5.30;94.40;;;;;;5103952;28;20271;-79
2022/01/15 02:33:22;;;;;;;10.15;7.80;;;5.00;94.80;;;;;;5109575;28;20214;-78
2022/01/15 02:35:53;;;;;;;15.82;8.02;;;5.00;94.70;;;;;;5106948;28;20233;-79
2022/01/15 02:38:22;;;;;;;9.70;6.65;;;5.00;94.40;;;;;;5106788;28;20195;-80
2022/01/15 02:40:50;;;;;;;13.95;8.18;;;5.00;95.00;;;;;;5107851;28;20827;-79
2022/01/15 02:43:21;;;;;;;10.07;6.65;;;5.00;94.80;;;;;;5108339;28;20227;-79
2022/01/15 02:45:55;;;;;;;13.52;7.22;;;4.90;94.70;;;;;;5108321;28;20229;-79
2022/01/15 02:48:25;;;;;;;10.13;7.47;;;4.80;95.40;;;;;;5101415;28;20235;-80
2022/01/15 02:50:56;;;;;;;11.10;7.15;;;4.80;97.70;;;;;;5106989;28;20220;-80
2022/01/15 02:53:25;;;;;;;8.85;6.80;;;4.90;94.50;;;;;;5108875;28;20195;-80
2022/01/15 02:55:55;;;;;;;8.35;5.90;;;5.00;95.80;;;;;;5097243;28;20841;-80
2022/01/15 02:58:24;;;;;;;8.82;6.18;;;5.00;94.70;;;;;;5109398;28;20199;-79
2022/01/15 03:00:53;;;;;;;13.23;8.23;;;5.20;94.60;;;;;;5104716;28;20191;-78
2022/01/15 03:03:22;;;;;;;12.27;7.75;;;5.00;94.70;;;;;;5101479;28;20199;-79
2022/01/15 03:05:50;;;;;;;12.25;8.73;;;5.00;95.30;;;;;;5104952;28;20249;-79
2022/01/15 03:08:20;;;;;;;9.45;6.75;;;5.00;94.80;;;;;;5109319;28;20679;-80
2022/01/15 03:10:48;;;;;;;11.32;8.75;;;5.00;95.00;;;;;;5103212;28;20204;-80
2022/01/15 03:13:17;;;;;;;11.48;6.75;;;4.90;94.70;;;;;;5106062;27;20729;-79
2022/01/15 03:15:45;;;;;;;11.73;7.75;;;4.90;93.40;;;;;;5106921;28;20225;-78
2022/01/15 03:18:13;;;;;;;12.05;7.68;;;4.80;91.60;;;;;;5104024;28;20290;-79
2022/01/15 03:20:42;;;;;;;13.63;7.93;;;4.80;92.60;;;;;;5122744;27;20268;-79
2022/01/15 03:23:10;;;;;;;13.60;7.75;;;4.80;93.10;;;;;;5109720;28;20209;-78
2022/01/15 03:25:40;;;;;;;14.32;8.32;;;4.70;94.90;;;;;;5104312;28;20225;-80
2022/01/15 03:28:08;;;;;;;15.00;8.60;;;4.70;99.90;;;;;;5101360;28;20206;-79
2022/01/15 03:30:36;;;;;;;11.32;7.63;;;4.80;97.70;;;;;;5103643;28;20207;-80
2022/01/15 03:33:05;;;;;;;11.70;6.90;;;4.90;98.40;;;;;;5103211;28;20289;-79
2022/01/15 03:35:35;;;;;;;9.85;7.65;;;4.90;99.90;;;;;;5107860;28;20241;-80
2022/01/15 03:38:04;;;;;;;14.85;7.95;;;5.20;99.90;;;;;;5101963;28;20209;-79
2022/01/15 03:40:33;;;;;;;12.50;8.35;;;4.90;99.90;;;;;;5099032;28;20198;-78
2022/01/15 03:43:04;;;;;;;13.75;8.60;;;4.90;99.90;;;;;;5109475;28;20210;-79
2022/01/15 03:45:33;;;;;;;11.45;8.27;;;4.90;99.90;;;;;;5106037;28;20332;-78
2022/01/15 03:48:02;;;;;;;15.82;7.72;;;4.90;99.90;;;;;;5097718;28;20679;-78
2022/01/15 03:50:30;;;;;;;9.35;7.10;;;4.90;94.90;;;;;;5108460;28;20209;-79
2022/01/15 03:52:58;;;;;;;16.80;8.73;;;5.10;95.40;;;;;;5109299;28;20197;-79
2022/01/15 03:55:27;;;;;;;9.00;7.45;;;4.80;94.70;;;;;;5094363;28;20218;-79
2022/01/15 03:57:55;;;;;;;10.75;7.93;;;4.80;95.40;;;;;;5102240;28;20211;-80
2022/01/15 04:00:26;;;;;;;10.82;8.35;;;4.80;94.90;;;;;;5100086;28;20201;-80
2022/01/15 04:02:56;;;;;;;16.58;9.02;;;4.70;92.90;;;;;;5104635;28;20282;-79
2022/01/15 04:05:25;;;;;;;9.93;7.30;;;4.70;91.80;;;;;;5108737;28;20229;-79
2022/01/15 04:07:53;;;;;;;11.98;8.13;;;4.60;90.70;;;;;;5108084;28;20286;-79
2022/01/15 04:10:22;;;;;;;11.05;7.70;;;4.50;90.20;;;;;;5108437;28;20197;-79
2022/01/15 04:12:50;;;;;;;13.25;8.23;;;4.60;91.40;;;;;;5096630;28;20288;-79
2022/01/15 04:15:20;;;;;;;15.13;8.18;;;4.60;91.90;;;;;;5104224;28;20214;-79
2022/01/15 04:17:50;;;;;;;14.35;8.02;;;4.50;90.70;;;;;;5108102;28;20285;-79
2022/01/15 04:20:22;;;;;;;8.80;6.05;;;4.50;91.50;;;;;;5108054;28;20202;-79
2022/01/15 04:22:51;;;;;;;12.90;7.57;;;4.40;91.00;;;;;;5109078;28;20581;-79
2022/01/15 04:25:20;;;;;;;8.90;6.72;;;4.40;90.10;;;;;;5103876;28;20225;-79
2022/01/15 04:27:49;;;;;;;8.80;6.68;;;4.40;88.60;;;;;;5093172;28;20194;-79
2022/01/15 04:30:18;;;;;;;7.90;6.80;;;4.40;91.50;;;;;;5092742;28;20205;-79
2022/01/15 04:32:46;;;;;;;10.05;6.45;;;4.40;91.60;;;;;;5095519;28;20197;-78
2022/01/15 04:35:16;;;;;;;9.48;6.28;;;4.50;92.10;;;;;;5107226;28;20213;-78
2022/01/15 04:37:47;;;;;;;7.85;6.70;;;4.40;91.30;;;;;;5100885;28;20615;-79
2022/01/15 04:40:17;;;;;;;8.95;6.15;;;4.40;90.60;;;;;;5108767;28;20196;-80
2022/01/15 04:42:45;;;;;;;7.15;6.20;;;4.60;90.50;;;;;;5102792;28;20201;-80
2022/01/15 04:45:14;;;;;;;6.70;5.47;;;4.40;91.10;;;;;;5104215;28;20229;-79
2022/01/15 04:47:42;;;;;;;12.45;5.97;;;4.40;90.20;;;;;;5106210;28;20389;-79
2022/01/15 04:50:13;;;;;;;9.00;5.93;;;4.60;89.50;;;;;;5098165;28;20210;-80
2022/01/15 04:52:43;;;;;;;8.45;6.75;;;4.30;89.70;;;;;;5105450;28;20568;-79
2022/01/15 04:55:13;;;;;;;7.78;6.35;;;4.60;86.90;;;;;;5096538;28;20224;-79
2022/01/15 04:57:43;;;;;;;7.70;4.68;;;4.60;88.10;;;;;;5110636;28;20218;-80
2022/01/15 05:00:14;;;;;;;6.38;5.13;;;4.30;90.00;;;;;;5112659;28;20265;-79
2022/01/15 05:02:42;;;;;;;7.15;5.20;;;4.30;88.60;;;;;;5110830;28;20206;-78
2022/01/15 05:05:13;;;;;;;7.45;5.20;;;4.40;87.50;;;;;;5110008;28;20228;-79
2022/01/15 05:07:43;;;;;;;8.82;5.85;;;4.30;85.20;;;;;;5109514;28;20205;-79
2022/01/15 05:10:16;;;;;;;5.90;4.90;;;4.20;83.30;;;;;;5101866;28;20239;-79
2022/01/15 05:12:46;;;;;;;6.80;4.55;;;4.20;79.70;;;;;;5104761;28;20890;-80
2022/01/15 05:15:17;;;;;;;6.60;5.10;;;4.20;82.20;;;;;;5109205;28;20247;-79
2022/01/15 05:17:46;;;;;;;4.53;4.07;;;4.20;85.20;;;;;;5106688;28;20202;-80
2022/01/15 05:20:17;;;;;;;5.40;4.72;;;4.20;90.80;;;;;;5108131;28;20210;-80
2022/01/15 05:22:47;;;;;;;6.32;4.25;;;4.40;92.30;;;;;;5107966;28;20217;-80
2022/01/15 05:25:18;;;;;;;5.13;3.80;;;4.20;92.10;;;;;;5105267;28;20221;-80
2022/01/15 05:27:48;;;;;;;5.70;3.72;;;4.20;90.50;;;;;;5112010;28;20208;-80
2022/01/15 05:30:16;;;;;;;8.93;4.40;;;4.10;90.10;;;;;;5114035;28;20212;-79
2022/01/15 05:32:44;;;;;;;8.32;4.35;;;4.20;91.30;;;;;;5122848;28;20237;-79
2022/01/15 05:35:13;;;;;;;6.10;4.28;;;4.20;88.20;;;;;;5103600;27;20580;-80
2022/01/15 05:37:41;;;;;;;5.45;4.38;;;4.40;88.70;;;;;;5105447;28;20754;-78
2022/01/15 05:40:12;;;;;;;7.30;4.70;;;4.20;86.30;;;;;;5102872;28;20204;-79
2022/01/15 05:42:41;;;;;;;6.30;4.00;;;4.20;89.10;;;;;;5111591;28;20718;-81
2022/01/15 05:45:11;;;;;;;9.90;4.78;;;4.20;89.10;;;;;;5103022;28;20229;-79
2022/01/15 05:47:39;;;;;;;6.22;4.20;;;4.20;85.40;;;;;;5109726;28;20199;-78
2022/01/15 05:50:09;;;;;;;6.22;4.82;;;4.20;88.00;;;;;;5105506;28;20256;-79
2022/01/15 05:52:37;;;;;;;6.18;4.60;;;4.10;82.80;;;;;;5107627;28;20202;-80
2022/01/15 05:55:06;;;;;;;6.97;4.88;;;4.10;81.90;;;;;;5100568;28;20590;-79
2022/01/15 05:57:37;;;;;;;4.72;3.75;;;4.10;84.90;;;;;;5105165;28;20220;-79
2022/01/15 06:00:07;;;;;;;7.80;5.38;;;4.30;84.90;;;;;;5103666;28;20211;-80
2022/01/15 06:02:35;;;;;;;4.78;4.30;;;4.10;83.30;;;;;;5106052;28;20205;-80
2022/01/15 06:05:04;;;;;;;7.97;4.82;;;4.30;85.40;;;;;;5109164;28;20213;-80
2022/01/15 06:07:32;;;;;;;7.47;5.15;;;4.10;82.50;;;;;;5105934;28;20196;-79
2022/01/15 06:10:00;;;;;;;5.50;4.78;;;4.10;84.80;;;;;;5108819;28;20201;-79
2022/01/15 06:12:31;;;;;;;6.00;5.05;;;4.10;86.60;;;;;;5106239;28;20201;-79
2022/01/15 06:15:01;;;;;;;6.80;4.93;;;4.00;82.40;;;;;;5111127;28;20278;-79
2022/01/15 06:17:29;;;;;;;6.18;4.90;;;4.00;81.10;;;;;;5110614;28;20204;-79
2022/01/15 06:19:57;;;;;;;7.53;5.63;;;4.10;84.00;;;;;;5107599;28;20202;-79
2022/01/15 06:22:25;;;;;;;8.57;4.45;;;4.00;82.80;;;;;;5103956;28;20685;-79
2022/01/15 06:24:54;;;;;;;9.77;5.30;;;4.10;82.00;;;;;;5109638;28;20220;-79
2022/01/15 06:27:25;;;;;;;6.43;4.30;;;4.10;79.10;;;;;;5102141;28;20194;-79
2022/01/15 06:29:56;;;;;;;5.45;4.93;;;4.00;82.20;;;;;;5105231;28;20800;-80
2022/01/15 06:32:26;;;;;;;7.22;5.28;;;4.00;82.60;;;;;;5098751;28;20199;-79
2022/01/15 06:34:54;;;;;;;10.75;6.43;;;3.90;87.20;;;;;;5094405;28;20221;-79
2022/01/15 06:37:23;;;;;;;9.45;5.60;;;4.10;87.60;;;;;;5103237;28;20199;-79
2022/01/15 06:39:51;;;;;;;11.10;5.57;;;4.00;85.90;;;;;;5108582;28;20533;-80
2022/01/15 06:42:19;;;;;;;6.18;5.57;;;4.00;83.70;;;;;;5111836;28;20207;-80
2022/01/15 06:44:47;;;;;;;14.25;7.18;;;4.10;82.30;;;;;;5099273;28;20877;-80
2022/01/15 06:47:15;;;;;;;11.60;6.45;;;3.90;84.50;;;;;;5103968;28;20232;-79
2022/01/15 06:49:45;;;;;;;9.32;5.65;;;3.90;86.90;;;;;;5106985;28;20195;-80
2022/01/15 06:52:13;;;;;;;7.40;6.10;;;4.10;83.60;;;;;;5124921;27;20679;-80
2022/01/15 06:54:42;;;;;;;9.10;5.63;;;3.90;82.00;;;;;;5105991;28;20224;-81
2022/01/15 06:57:10;;;;;;;11.88;6.65;;;3.90;82.80;;;;;;5111281;28;20675;-82
2022/01/15 06:59:38;;;;;;;7.28;6.47;;;4.00;85.50;;;;;;5108639;28;20787;-80
2022/01/15 07:02:10;;;;;;;10.45;5.80;;;3.90;84.20;;;;;;5105344;28;20209;-80
2022/01/15 07:04:39;;;;;;;9.43;6.80;;;3.90;83.50;;;;;;5110319;28;20240;-80
2022/01/15 07:07:09;;;;;;;9.68;7.78;;;3.90;83.90;;;;;;5111278;28;20492;-81
2022/01/15 07:09:37;;;;;;;9.68;7.03;;;3.90;83.00;;;;;;5105308;28;20222;-80
2022/01/15 07:12:06;;;;;;;7.70;6.35;;;4.00;84.40;;;;;;5101830;27;20199;-81
2022/01/15 07:14:34;;;;;;;10.77;5.55;;;3.80;84.70;;;;;;5101395;28;20257;-82
2022/01/15 07:17:03;;;;;;;9.70;6.13;;;3.80;85.30;;;;;;5099487;28;20769;-81
2022/01/15 07:19:32;;;;;;;10.95;6.22;;;3.90;85.00;;;;;;5100655;28;20227;-81
2022/01/15 07:22:00;;;;;;;8.10;5.32;;;3.50;83.90;;;;;;5100623;27;20189;-80
2022/01/15 07:24:29;;;;;;;12.45;5.13;;;3.90;82.40;;;;;;5100227;28;20246;-81
2022/01/15 07:26:58;;;;;;;10.52;5.50;;;3.90;84.10;;;;;;5101431;28;20252;-80
2022/01/15 07:29:29;;;;;;;10.07;5.90;;;3.90;83.20;;;;;;5103146;28;20212;-80
2022/01/15 07:31:58;;;;;;;6.47;4.45;;;3.90;85.30;;;;;;5107632;28;20721;-79
2022/01/15 07:34:26;;;;;;;7.72;5.82;;;3.90;84.00;;;;;;5099156;28;20594;-80
2022/01/15 07:36:57;;;;;;;6.45;4.35;;;3.90;84.40;;;;;;5107067;27;20677;-80
2022/01/15 07:39:26;;;;;;;7.72;5.60;;;3.90;82.00;;;;;;5106271;28;20739;-78
2022/01/15 07:41:56;;;;;;;5.78;5.22;;;3.90;83.90;;;;;;5103335;28;20194;-80
2022/01/15 07:44:24;;;;;;;7.20;5.80;;;3.90;88.50;;;;;;5108665;27;20222;-80
2022/01/15 07:46:54;;;;;;;7.70;5.93;;;4.10;91.80;;;;;;5100254;28;20216;-80
2022/01/15 07:49:22;;;;;;;9.93;5.32;;;4.00;91.90;;;;;;5102797;28;20188;-80
2022/01/15 07:51:50;;;;;;;8.40;5.25;;;4.00;89.50;;;;;;5100822;28;20663;-81
2022/01/15 07:54:19;;;;;;;5.40;4.88;;;4.00;89.70;;;;;;5110159;27;20609;-80
2022/01/15 07:56:47;;;;;;;7.95;4.80;;;4.00;90.10;;;;;;5100784;28;20201;-81
2022/01/15 07:59:17;;;;;;;7.60;5.50;;;3.90;90.10;;;;;;5102182;28;20197;-81
2022/01/15 08:01:45;;;;;;;5.80;5.20;;;3.90;94.40;;;;;;5100818;28;20208;-80
2022/01/15 08:04:13;;;;;;;7.68;5.30;;;3.90;94.30;;;;;;5109078;28;20275;-81
2022/01/15 08:06:42;;;;;;;6.35;5.75;;;4.20;94.60;;;;;;5108751;28;20230;-80
2022/01/15 08:09:10;;;;;;;9.10;6.28;;;4.20;92.70;;;;;;5098825;28;20202;-80
2022/01/15 08:11:38;;;;;;;9.73;5.97;;;4.00;93.60;;;;;;5096708;28;20199;-83
2022/01/15 08:14:06;;;;;;;6.40;5.32;;;4.00;94.70;;;;;;5104665;28;20213;-80
2022/01/15 08:16:36;;;;;;;7.93;6.40;;;4.10;94.50;;;;;;5098900;28;20188;-74
2022/01/15 08:19:04;;;;;;;9.65;6.90;;;4.20;94.70;;;;;;5103838;28;20316;-79
2022/01/15 08:21:32;;;;;;;7.75;4.78;;;4.20;94.70;;;;;;5099280;28;20194;-80
2022/01/15 08:24:01;;;;;;;8.32;6.93;;;4.30;94.90;;;;;;5107514;28;20229;-80
2022/01/15 08:26:29;;;;;;;13.63;7.80;;;4.40;94.70;;;;;;5102903;28;20297;-80
2022/01/15 08:28:57;;;;;;;7.38;5.55;;;4.40;94.80;;;;;;5105881;28;20203;-79
2022/01/15 08:31:25;;;;;;;8.40;6.55;;;4.50;94.90;;;;;;5103574;28;20268;-81
2022/01/15 08:33:55;;;;;;;7.85;6.82;;;4.50;95.00;;;;;;5096626;28;20734;-81
2022/01/15 08:36:24;;;;;;;9.18;6.65;;;4.60;94.70;;;;;;5101047;28;20203;-80
2022/01/15 08:38:52;;;;;;;10.60;7.70;;;4.70;94.90;;;;;;5100937;28;20214;-80
2022/01/15 08:41:24;;;;;;;8.75;7.00;;;4.80;95.40;;;;;;5109752;28;20212;-80
2022/01/15 08:43:53;;;;;;;10.60;7.78;;;4.90;94.90;;;;;;5100582;28;20298;-82
2022/01/15 08:46:21;;;;;;;9.95;6.78;;;5.00;95.30;;;;;;5106567;28;20290;-80
2022/01/15 08:48:50;;;;;;;8.88;6.63;;;5.10;95.50;;;;;;5104164;27;20663;-80
2022/01/15 08:51:20;;;;;;;13.20;8.27;;;5.10;95.40;;;;;;5100406;28;20674;-80
2022/01/15 08:53:48;;;;;;;13.07;8.55;;;5.40;94.60;;;;;;5119116;28;20210;-80
2022/01/15 08:56:17;;;;;;;11.32;7.95;;;5.20;95.20;;;;;;5104451;28;20688;-81
2022/01/15 08:58:45;;;;;;;12.18;7.72;;;5.30;97.00;;;;;;5095571;28;20580;-81
2022/01/15 09:01:15;;;;;;;12.48;7.60;;;5.40;99.70;;;;;;5102404;28;20209;-80
2022/01/15 09:03:44;;;;;;;16.80;8.10;;;5.40;99.90;;;;;;5106898;28;20284;-79
2022/01/15 09:06:13;;;;;;;11.48;8.98;;;5.70;99.90;;;;;;5098030;28;20351;-80
2022/01/15 09:08:45;;;;;;;15.95;9.48;;;5.50;99.90;;;;;;5108001;28;20233;-81
2022/01/15 09:11:13;;;;;;;14.48;8.60;;;5.40;99.90;;;;;;5111018;28;20205;-81
2022/01/15 09:13:43;;;;;;;10.20;8.50;;;5.50;99.90;;;;;;5105970;28;20195;-79
2022/01/15 09:16:11;;;;;;;14.63;8.85;;;5.60;99.90;;;;;;5101186;27;20198;-78
2022/01/15 09:18:39;;;;;;;10.35;8.50;;;5.60;99.90;;;;;;5096444;28;20222;-79
2022/01/15 09:21:08;;;;;;;11.32;8.60;;;5.70;99.90;;;;;;5105952;28;20199;-81
2022/01/15 09:23:36;;;;;;;11.63;8.10;;;5.90;99.90;;;;;;5106884;28;20195;-78
2022/01/15 09:26:18;;;;;;;11.75;8.07;;;5.90;99.90;;;;;;5109535;28;20184;-78
2022/01/15 09:31:32;;;;;;;9.35;8.05;;;5.70;99.90;;;;;;5106679;27;20642;-79
2022/01/15 09:34:01;;;;;;;9.70;7.55;;;5.70;99.90;;;;;;5101891;28;20229;-79
2022/01/15 09:36:29;;;;;;;10.88;9.13;;;5.80;99.90;;;;;;5109577;27;20194;-78
2022/01/15 09:38:57;;;;;;;16.65;10.80;;;5.80;99.90;;;;;;5104956;28;20195;-78
2022/01/15 09:41:27;;;;;;;20.58;9.00;;;5.90;99.90;;;;;;5110478;28;20211;-79
2022/01/15 09:43:57;;;;;;;13.65;8.63;;;6.00;99.90;;;;;;5109063;28;20199;-78
2022/01/15 09:46:25;;;;;;;14.40;10.13;;;6.20;99.90;;;;;;5101311;28;20448;-76
2022/01/15 09:48:54;;;;;;;10.37;8.70;;;6.30;99.90;;;;;;5107933;28;20226;-79
2022/01/15 09:51:22;;;;;;;13.00;9.33;;;6.50;99.90;;;;;;5106321;28;20433;-78
2022/01/15 09:53:51;;;;;;;8.50;7.37;;;6.80;99.90;;;;;;5103741;28;20465;-79
2022/01/15 09:56:20;;;;;;;8.20;7.40;;;7.10;99.90;;;;;;5095715;27;21783;-78
2022/01/15 09:58:49;;;;;;;10.47;7.50;;;7.50;99.90;;;;;;5107897;27;20468;-79
2022/01/15 10:01:18;;;;;;;11.87;8.50;;;7.70;99.90;;;;;;5109305;27;20453;-79
2022/01/15 10:03:46;;;;;;;15.73;12.02;;;8.10;99.90;;;;;;5106813;27;20447;-79
2022/01/15 10:06:14;;;;;;;13.03;8.37;;;8.40;99.90;;;;;;5110032;27;20243;-80
2022/01/15 10:08:59;;;;;;;10.00;8.47;;;8.80;99.90;;;;;;5101167;27;20475;-79
2022/01/15 10:11:41;;;;;;;10.63;8.43;;;9.30;99.90;;;;;;5103612;27;20551;-79
2022/01/15 10:14:27;;;;;;;11.53;9.00;;;9.70;99.90;;;;;;5105149;27;20524;-79
2022/01/15 10:16:57;;;;;;;12.40;8.87;;;9.90;99.90;;;;;;5104606;27;20457;-80
2022/01/15 10:19:30;;;;;;;12.00;8.20;;;10.20;99.90;;;;;;5096441;28;20486;-79
2022/01/15 10:22:10;;;;;;;14.10;9.10;;;10.50;99.90;;;;;;5106760;28;20896;-80
2022/01/15 10:24:40;;;;;;;10.23;8.53;;;10.80;99.90;;;;;;5111948;28;20482;-79
2022/01/15 10:27:23;;;;;;;9.00;7.83;;;11.10;99.90;;;;;;5110580;28;20449;-81
2022/01/15 10:29:58;;;;;;;7.90;7.10;;;11.50;99.90;;;;;;5114205;28;20494;-82
2022/01/15 10:32:28;;;;;;;12.20;8.60;;;11.20;99.90;;;;;;5106370;28;20445;-80
2022/01/15 10:34:56;;;;;;;9.77;8.57;;;11.30;99.90;;;;;;5106462;28;20469;-82
2022/01/15 10:37:27;;;;;;;10.00;8.13;;;11.60;99.90;;;;;;5111560;28;20452;-81
2022/01/15 10:39:58;;;;;;;14.53;8.53;;;11.80;99.90;;;;;;5109526;28;20892;-81
2022/01/15 10:42:27;;;;;;;7.80;7.00;;;11.90;99.90;;;;;;5113311;27;20457;-81
2022/01/15 10:44:58;;;;;;;7.67;6.97;;;12.00;99.90;;;;;;5107174;27;20479;-81
2022/01/15 10:47:28;;;;;;;7.70;6.33;;;12.20;99.90;;;;;;5106798;27;20482;-80
2022/01/15 10:50:02;;;;;;;8.90;7.97;;;12.20;99.90;;;;;;5112384;28;20457;-80
2022/01/15 10:52:31;;;;;;;9.70;7.03;;;12.40;99.90;;;;;;5111936;28;20458;-82
2022/01/15 10:55:02;;;;;;;9.63;6.97;;;12.60;99.90;;;;;;5106446;28;20540;-81
2022/01/15 10:57:33;;;;;;;7.07;6.37;;;12.60;99.90;;;;;;5104277;27;20478;-79
2022/01/15 11:00:11;;;;;;;8.83;6.33;;;12.80;99.90;;;;;;5101993;28;20452;-81
2022/01/15 11:02:41;;;;;;;7.97;7.13;;;12.80;99.90;;;;;;5109579;28;20447;-81
2022/01/15 11:05:27;;;;;;;8.97;5.90;;;12.80;99.90;;;;;;5105853;28;20545;-81
2022/01/15 11:08:05;;;;;;;5.53;4.93;;;13.00;99.90;;;;;;5106232;28;20467;-81
2022/01/15 11:10:38;;;;;;;6.93;5.47;;;13.10;99.90;;;;;;5108430;28;21048;-82
2022/01/15 11:13:10;;;;;;;6.67;4.67;;;13.20;99.90;;;;;;5106052;28;21039;-80
2022/01/15 11:15:41;;;;;;;5.63;4.00;;;13.30;99.90;;;;;;5097740;28;20493;-81
2022/01/15 11:18:14;;;;;;;4.43;4.00;;;13.30;99.90;;;;;;5099812;28;20455;-82
2022/01/15 11:20:46;;;;;;;4.07;3.67;;;13.40;99.90;;;;;;5102597;28;20452;-80
2022/01/15 11:23:16;;;;;;;5.77;3.80;;;13.40;99.90;;;;;;5109792;28;21064;-80
2022/01/15 11:25:46;;;;;;;3.90;3.50;;;13.40;98.50;;;;;;5104140;28;20587;-81
2022/01/15 11:28:14;;;;;;;5.67;3.83;;;13.50;98.00;;;;;;5108462;28;20467;-83
2022/01/15 11:30:46;;;;;;;3.67;3.30;;;13.60;98.90;;;;;;5110963;28;20915;-81
2022/01/15 11:33:21;;;;;;;5.27;3.37;;;13.70;98.40;;;;;;5106657;28;20502;-81
2022/01/15 11:35:50;;;;;;;6.50;4.00;;;13.60;98.40;;;;;;5103749;28;20472;-81
2022/01/15 11:38:46;;;;;;;7.27;4.03;;;13.50;98.10;;;;;;5099150;28;20454;-81
2022/01/15 11:41:35;;;;;;;5.80;3.87;;;13.40;97.60;;;;;;5061391;28;20550;-81
2022/01/15 11:44:05;;;;;;;7.25;4.60;;;13.40;97.50;;;;;;5103616;28;20443;-81
2022/01/15 11:46:41;;;;;;;5.80;3.97;;;13.40;97.70;;;;;;5107097;28;20462;-81
2022/01/15 11:49:30;;;;;;;5.77;4.13;;;13.30;96.70;;;;;;5107555;28;20492;-81
2022/01/15 11:52:14;;;;;;;5.80;4.40;;;13.20;97.80;;;;;;5105735;28;20447;-79
2022/01/15 11:55:16;;;;;;;5.07;4.30;;;13.10;98.10;;;;;;5100117;28;20496;-80
2022/01/15 11:57:54;;;;;;;5.80;4.50;;;13.00;97.40;;;;;;5096295;28;20473;-80
2022/01/15 12:00:28;;;;;;;5.77;5.27;;;13.00;97.90;;;;;;5105807;28;20437;-80
2022/01/15 12:03:04;;;;;;;7.27;5.70;;;12.90;98.10;;;;;;5109833;27;20532;-81
2022/01/15 12:05:35;;;;;;;8.60;6.03;;;12.90;98.40;;;;;;5100545;28;20446;-81
2022/01/15 12:08:30;;;;;;;6.97;6.40;;;12.90;97.70;;;;;;5104171;28;20679;-81
2022/01/15 12:11:01;;;;;;;6.53;5.93;;;12.90;99.60;;;;;;5106044;28;20451;-81
2022/01/15 12:13:34;;;;;;;9.70;6.93;;;12.90;99.30;;;;;;5100400;28;20461;-81
2022/01/15 12:16:28;;;;;;;8.70;6.37;;;12.90;99.70;;;;;;5100974;28;20846;-81
2022/01/15 12:18:59;;;;;;;10.03;6.53;;;12.90;99.80;;;;;;5105200;28;20857;-81
2022/01/15 12:21:56;;;;;;;10.27;6.70;;;12.90;99.90;;;;;;5098526;28;20450;-80
2022/01/15 12:24:39;;;;;;;12.30;7.30;;;12.90;98.90;;;;;;5105652;28;20554;-81
2022/01/15 12:27:11;;;;;;;7.87;7.00;;;12.90;99.10;;;;;;5106723;28;20458;-81
2022/01/15 12:29:41;;;;;;;9.97;7.70;;;13.00;99.00;;;;;;5097583;28;20507;-81
2022/01/15 12:32:11;;;;;;;12.10;7.77;;;13.00;99.10;;;;;;5104856;28;20978;-81
2022/01/15 12:34:41;;;;;;;8.53;6.13;;;13.00;99.60;;;;;;5108826;28;20458;-80
2022/01/15 12:37:15;;;;;;;10.27;6.70;;;13.00;98.90;;;;;;5108288;28;20464;-81
2022/01/15 12:39:43;;;;;;;8.90;6.60;;;12.90;98.00;;;;;;5103707;28;20446;-81
2022/01/15 12:42:13;;;;;;;7.90;6.80;;;12.90;98.00;;;;;;5100020;28;20457;-80
2022/01/15 12:44:43;;;;;;;9.70;6.10;;;12.90;98.20;;;;;;5106614;28;20542;-81
2022/01/15 12:47:11;;;;;;;9.77;6.77;;;12.90;97.40;;;;;;5103334;28;20740;-80
2022/01/15 12:49:43;;;;;;;6.47;5.37;;;13.00;98.20;;;;;;5100530;28;20478;-80
2022/01/15 12:52:14;;;;;;;5.90;4.90;;;13.00;97.70;;;;;;5103962;28;20807;-80
2022/01/15 12:54:42;;;;;;;8.53;6.07;;;13.00;97.30;;;;;;5105238;28;20576;-80
2022/01/15 12:57:11;;;;;;;6.27;5.23;;;12.90;97.50;;;;;;5106703;28;20476;-80
2022/01/15 12:59:39;;;;;;;8.27;5.40;;;12.90;96.00;;;;;;5103095;28;20519;-80
2022/01/15 13:02:07;;;;;;;6.03;4.83;;;12.80;96.30;;;;;;5101986;28;20456;-80
2022/01/15 13:04:35;;;;;;;5.67;5.07;;;12.70;96.00;;;;;;5110271;28;20523;-80
2022/01/15 13:07:05;;;;;;;7.13;4.30;;;12.70;96.10;;;;;;5107303;28;20464;-81
2022/01/15 13:09:42;;;;;;;5.47;4.37;;;12.70;95.40;;;;;;5106112;28;20465;-81
2022/01/15 13:12:12;;;;;;;5.33;4.43;;;12.70;93.90;;;;;;5105806;28;20839;-80
2022/01/15 13:14:41;;;;;;;8.37;5.60;;;12.70;94.40;;;;;;5112328;28;20480;-82
2022/01/15 13:17:21;;;;;;;7.83;5.13;;;12.70;94.20;;;;;;5111000;28;20453;-82
2022/01/15 13:19:50;;;;;;;7.80;5.23;;;12.70;94.50;;;;;;5098479;28;20447;-81
2022/01/15 13:22:23;;;;;;;7.03;5.57;;;12.80;96.50;;;;;;5106065;28;20468;-83
2022/01/15 13:25:05;;;;;;;7.93;5.60;;;12.80;96.50;;;;;;5103248;28;20476;-82